sensor_id;sensor_type;location;lat;lon;timestamp;pressure;altitude;pressure_sealevel;temperature;humidity
14383;BME280;7275;50.328;8.720;2023-04-19T00:02:22;100584.59;;;17.67;41.39
14383;BME280;7275;50.328;8.720;2023-04-19T00:04:51;100576.75;;;17.64;41.48
14383;BME280;7275;50.328;8.720;2023-04-19T00:07:21;100581.31;;;17.62;41.43
14383;BME280;7275;50.328;8.720;2023-04-19T00:09:48;100575.22;;;17.58;41.58
14383;BME280;7275;50.328;8.720;2023-04-19T01:29:45;100522.00;;;17.20;42.04
14383;BME280;7275;50.328;8.720;2023-04-19T01:32:13;100518.22;;;17.24;42.03
14383;BME280;7275;50.328;8.720;2023-04-19T01:34:40;100518.22;;;17.24;42.00
14383;BME280;7275;50.328;8.720;2023-04-19T01:37:08;100516.41;;;17.24;41.92
14383;BME280;7275;50.328;8.720;2023-04-19T01:39:35;100513.06;;;17.21;42.14
14383;BME280;7275;50.328;8.720;2023-04-19T01:42:03;100501.56;;;17.19;42.09
14383;BME280;7275;50.328;8.720;2023-04-19T01:44:30;100500.75;;;17.17;42.18
14383;BME280;7275;50.328;8.720;2023-04-19T01:46:59;100505.25;;;17.16;42.26
14383;BME280;7275;50.328;8.720;2023-04-19T01:49:27;100501.72;;;17.16;42.44
14383;BME280;7275;50.328;8.720;2023-04-19T01:51:54;100499.91;;;17.16;42.46
14383;BME280;7275;50.328;8.720;2023-04-19T01:54:22;100508.78;;;17.17;42.53
14383;BME280;7275;50.328;8.720;2023-04-19T01:56:49;100501.56;;;17.19;42.33
14383;BME280;7275;50.328;8.720;2023-04-19T01:59:17;100493.56;;;17.19;42.49
14383;BME280;7275;50.328;8.720;2023-04-19T02:01:44;100495.34;;;17.18;42.42
14383;BME280;7275;50.328;8.720;2023-04-19T02:04:13;100488.34;;;17.16;42.58
14383;BME280;7275;50.328;8.720;2023-04-19T02:06:41;100493.94;;;17.11;42.70
14383;BME280;7275;50.328;8.720;2023-04-19T02:09:09;100491.44;;;17.08;42.72
14383;BME280;7275;50.328;8.720;2023-04-19T02:11:37;100483.47;;;17.07;42.94
14383;BME280;7275;50.328;8.720;2023-04-19T02:14:05;100487.97;;;17.06;42.72
14383;BME280;7275;50.328;8.720;2023-04-19T02:16:32;100488.03;;;17.05;43.04
14383;BME280;7275;50.328;8.720;2023-04-19T02:19:01;100483.66;;;17.04;42.99
14383;BME280;7275;50.328;8.720;2023-04-19T02:21:30;100480.97;;;17.04;43.15
14383;BME280;7275;50.328;8.720;2023-04-19T02:23:58;100482.69;;;17.05;43.14
14383;BME280;7275;50.328;8.720;2023-04-19T02:26:25;100474.63;;;17.06;43.15
14383;BME280;7275;50.328;8.720;2023-04-19T02:28:53;100478.22;;;17.05;43.44
14383;BME280;7275;50.328;8.720;2023-04-19T02:31:20;100472.97;;;17.04;43.26
14383;BME280;7275;50.328;8.720;2023-04-19T02:33:48;100471.22;;;17.03;43.36
14383;BME280;7275;50.328;8.720;2023-04-19T02:36:15;100473.91;;;17.03;43.21
14383;BME280;7275;50.328;8.720;2023-04-19T02:38:44;100464.06;;;17.03;43.34
14383;BME280;7275;50.328;8.720;2023-04-19T02:41:11;100472.09;;;17.03;43.41
14383;BME280;7275;50.328;8.720;2023-04-19T02:43:39;100473.03;;;17.02;43.52
14383;BME280;7275;50.328;8.720;2023-04-19T02:46:06;100473.03;;;17.02;43.55
14383;BME280;7275;50.328;8.720;2023-04-19T02:48:34;100467.75;;;17.01;43.40
14383;BME280;7275;50.328;8.720;2023-04-19T02:51:02;100465.00;;;17.02;43.69
14383;BME280;7275;50.328;8.720;2023-04-19T02:53:29;100472.19;;;17.02;43.86
14383;BME280;7275;50.328;8.720;2023-04-19T02:55:58;100472.09;;;17.03;43.83
14383;BME280;7275;50.328;8.720;2023-04-19T02:58:26;100472.09;;;17.03;43.87
14383;BME280;7275;50.328;8.720;2023-04-19T03:00:54;100465.97;;;17.01;43.78
14383;BME280;7275;50.328;8.720;2023-04-19T03:03:21;100469.50;;;17.02;43.88
14383;BME280;7275;50.328;8.720;2023-04-19T03:05:49;100467.84;;;16.99;43.86
14383;BME280;7275;50.328;8.720;2023-04-19T03:08:17;100461.63;;;16.99;43.97
14383;BME280;7275;50.328;8.720;2023-04-19T03:10:44;100465.28;;;16.98;44.01
14383;BME280;7275;50.328;8.720;2023-04-19T03:13:13;100458.97;;;16.99;43.98
14383;BME280;7275;50.328;8.720;2023-04-19T03:15:40;100467.84;;;16.99;43.97
14383;BME280;7275;50.328;8.720;2023-04-19T03:18:08;100462.41;;;17.01;44.06
14383;BME280;7275;50.328;8.720;2023-04-19T03:20:36;100461.63;;;16.99;44.07
14383;BME280;7275;50.328;8.720;2023-04-19T03:23:03;100458.03;;;17.00;44.25
14383;BME280;7275;50.328;8.720;2023-04-19T03:25:31;100451.75;;;17.01;44.13
14383;BME280;7275;50.328;8.720;2023-04-19T03:27:59;100466.84;;;17.02;44.10
14383;BME280;7275;50.328;8.720;2023-04-19T03:30:27;100458.81;;;17.02;44.25
14383;BME280;7275;50.328;8.720;2023-04-19T03:32:55;100459.75;;;17.01;44.27
14383;BME280;7275;50.328;8.720;2023-04-19T03:35:23;100448.13;;;17.02;44.37
14383;BME280;7275;50.328;8.720;2023-04-19T03:37:51;100454.31;;;17.02;44.21
14383;BME280;7275;50.328;8.720;2023-04-19T03:40:19;100450.88;;;17.00;44.53
14383;BME280;7275;50.328;8.720;2023-04-19T03:42:47;100447.25;;;17.01;44.37
14383;BME280;7275;50.328;8.720;2023-04-19T03:45:14;100445.47;;;17.02;44.35
14383;BME280;7275;50.328;8.720;2023-04-19T03:47:43;100440.19;;;17.00;44.46
14383;BME280;7275;50.328;8.720;2023-04-19T03:50:11;100438.38;;;17.01;44.38
14383;BME280;7275;50.328;8.720;2023-04-19T03:52:38;100427.69;;;17.01;44.35
14383;BME280;7275;50.328;8.720;2023-04-19T03:55:07;100433.03;;;17.01;44.46
14383;BME280;7275;50.328;8.720;2023-04-19T03:57:35;100423.31;;;17.00;44.20
14383;BME280;7275;50.328;8.720;2023-04-19T04:00:03;100431.38;;;16.98;44.34
14383;BME280;7275;50.328;8.720;2023-04-19T04:02:35;100434.22;;;16.95;44.42
14383;BME280;7275;50.328;8.720;2023-04-19T04:05:05;100433.34;;;16.95;44.48
14383;BME280;7275;50.328;8.720;2023-04-19T04:07:33;100438.88;;;16.92;44.43
14383;BME280;7275;50.328;8.720;2023-04-19T04:10:00;100446.81;;;16.93;44.49
14383;BME280;7275;50.328;8.720;2023-04-19T04:12:28;100435.34;;;16.91;44.48
14383;BME280;7275;50.328;8.720;2023-04-19T04:14:55;100436.25;;;16.90;44.52
14383;BME280;7275;50.328;8.720;2023-04-19T04:17:23;100431.88;;;16.89;44.42
14383;BME280;7275;50.328;8.720;2023-04-19T04:19:51;100443.44;;;16.90;44.39
14383;BME280;7275;50.328;8.720;2023-04-19T04:22:19;100443.50;;;16.88;44.38
14383;BME280;7275;50.328;8.720;2023-04-19T04:24:47;100438.22;;;16.87;44.47
14383;BME280;7275;50.328;8.720;2023-04-19T04:27:15;100440.91;;;16.87;44.27
14383;BME280;7275;50.328;8.720;2023-04-19T04:29:45;100438.31;;;16.85;44.50
14383;BME280;7275;50.328;8.720;2023-04-19T04:32:14;100437.44;;;16.85;44.42
14383;BME280;7275;50.328;8.720;2023-04-19T04:34:43;100441.00;;;16.85;44.47
14383;BME280;7275;50.328;8.720;2023-04-19T04:37:10;100441.91;;;16.84;44.49
14383;BME280;7275;50.328;8.720;2023-04-19T04:39:41;100445.47;;;16.85;44.52
14383;BME280;7275;50.328;8.720;2023-04-19T04:42:09;100442.69;;;16.86;44.56
14383;BME280;7275;50.328;8.720;2023-04-19T04:44:37;100439.16;;;16.86;44.53
14383;BME280;7275;50.328;8.720;2023-04-19T04:47:05;100439.94;;;16.88;44.64
14383;BME280;7275;50.328;8.720;2023-04-19T04:49:32;100438.22;;;16.87;44.40
14383;BME280;7275;50.328;8.720;2023-04-19T04:52:00;100448.03;;;16.86;44.64
14383;BME280;7275;50.328;8.720;2023-04-19T04:54:27;100443.50;;;16.88;44.50
14383;BME280;7275;50.328;8.720;2023-04-19T04:56:58;100442.47;;;16.91;44.41
14383;BME280;7275;50.328;8.720;2023-04-19T04:59:26;100441.59;;;16.90;44.31
14383;BME280;7275;50.328;8.720;2023-04-19T05:01:53;100439.03;;;16.89;44.43
14383;BME280;7275;50.328;8.720;2023-04-19T05:04:21;100442.56;;;16.89;44.43
14383;BME280;7275;50.328;8.720;2023-04-19T05:06:48;100439.88;;;16.89;44.23
14383;BME280;7275;50.328;8.720;2023-04-19T05:09:16;100437.22;;;16.89;44.28
14383;BME280;7275;50.328;8.720;2023-04-19T05:11:43;100439.88;;;16.89;44.37
14383;BME280;7275;50.328;8.720;2023-04-19T05:14:12;100438.94;;;16.90;44.32
14383;BME280;7275;50.328;8.720;2023-04-19T05:16:40;100442.47;;;16.91;44.28
14383;BME280;7275;50.328;8.720;2023-04-19T05:19:08;100446.88;;;16.92;44.25
14383;BME280;7275;50.328;8.720;2023-04-19T05:21:35;100443.34;;;16.91;44.33
14383;BME280;7275;50.328;8.720;2023-04-19T05:24:04;100449.47;;;16.93;44.26
14383;BME280;7275;50.328;8.720;2023-04-19T05:26:31;100441.47;;;16.93;44.35
14383;BME280;7275;50.328;8.720;2023-04-19T05:28:59;100438.78;;;16.93;44.24
14383;BME280;7275;50.328;8.720;2023-04-19T05:31:28;100442.34;;;16.94;44.35
14383;BME280;7275;50.328;8.720;2023-04-19T05:33:55;100440.59;;;16.93;44.32
14383;BME280;7275;50.328;8.720;2023-04-19T05:36:23;100439.66;;;16.94;44.32
14383;BME280;7275;50.328;8.720;2023-04-19T05:38:52;100437.81;;;16.94;44.22
14383;BME280;7275;50.328;8.720;2023-04-19T05:41:19;100436.81;;;16.97;44.27
14383;BME280;7275;50.328;8.720;2023-04-19T05:43:47;100442.06;;;16.98;44.30
14383;BME280;7275;50.328;8.720;2023-04-19T05:46:14;100433.22;;;16.98;44.18
14383;BME280;7275;50.328;8.720;2023-04-19T05:48:43;100433.13;;;16.99;44.29
14383;BME280;7275;50.328;8.720;2023-04-19T05:51:12;100435.78;;;16.99;44.24
14383;BME280;7275;50.328;8.720;2023-04-19T05:53:39;100438.47;;;16.99;44.13
14383;BME280;7275;50.328;8.720;2023-04-19T05:56:07;100439.25;;;17.01;44.09
14383;BME280;7275;50.328;8.720;2023-04-19T05:58:34;100442.84;;;17.00;43.91
14383;BME280;7275;50.328;8.720;2023-04-19T06:01:02;100440.13;;;17.02;43.88
14383;BME280;7275;50.328;8.720;2023-04-19T06:03:30;100439.16;;;17.03;44.01
14383;BME280;7275;50.328;8.720;2023-04-19T06:06:00;100440.03;;;17.03;43.68
14383;BME280;7275;50.328;8.720;2023-04-19T06:08:28;100434.69;;;17.03;43.59
14383;BME280;7275;50.328;8.720;2023-04-19T06:10:56;100439.34;;;17.00;43.54
14383;BME280;7275;50.328;8.720;2023-04-19T06:13:33;100436.03;;;16.95;43.47
14383;BME280;7275;50.328;8.720;2023-04-19T06:16:01;100441.47;;;16.93;43.57
14383;BME280;7275;50.328;8.720;2023-04-19T06:18:28;100439.81;;;16.91;43.44
14383;BME280;7275;50.328;8.720;2023-04-19T06:20:56;100442.47;;;16.91;43.28
14383;BME280;7275;50.328;8.720;2023-04-19T06:23:25;100433.53;;;16.92;43.50
14383;BME280;7275;50.328;8.720;2023-04-19T06:25:52;100450.25;;;16.95;43.29
14383;BME280;7275;50.328;8.720;2023-04-19T06:28:20;100440.34;;;16.97;43.29
14383;BME280;7275;50.328;8.720;2023-04-19T06:30:48;100437.59;;;16.99;43.32
14383;BME280;7275;50.328;8.720;2023-04-19T06:33:15;100445.47;;;17.02;43.23
14383;BME280;7275;50.328;8.720;2023-04-19T06:35:42;100433.81;;;17.03;43.37
14383;BME280;7275;50.328;8.720;2023-04-19T06:38:10;100443.50;;;17.05;43.01
14383;BME280;7275;50.328;8.720;2023-04-19T06:40:39;100439.03;;;17.06;42.94
14383;BME280;7275;50.328;8.720;2023-04-19T06:43:06;100438.06;;;17.07;42.99
14383;BME280;7275;50.328;8.720;2023-04-19T06:45:34;100439.91;;;17.06;42.85
14383;BME280;7275;50.328;8.720;2023-04-19T06:48:02;100441.59;;;17.07;42.64
14383;BME280;7275;50.328;8.720;2023-04-19T06:50:29;100434.47;;;17.08;42.83
14383;BME280;7275;50.328;8.720;2023-04-19T06:52:57;100431.69;;;17.09;42.70
14383;BME280;7275;50.328;8.720;2023-04-19T06:55:24;100443.16;;;17.11;42.71
14383;BME280;7275;50.328;8.720;2023-04-19T06:57:53;100433.34;;;17.12;42.53
14383;BME280;7275;50.328;8.720;2023-04-19T07:00:21;100436.91;;;17.12;42.52
14383;BME280;7275;50.328;8.720;2023-04-19T07:02:49;100426.22;;;17.12;42.36
14383;BME280;7275;50.328;8.720;2023-04-19T07:05:17;100422.75;;;17.10;42.43
14383;BME280;7275;50.328;8.720;2023-04-19T07:07:45;100419.22;;;17.10;42.38
14383;BME280;7275;50.328;8.720;2023-04-19T07:10:12;100423.59;;;17.11;42.32
14383;BME280;7275;50.328;8.720;2023-04-19T07:12:40;100419.03;;;17.13;42.55
14383;BME280;7275;50.328;8.720;2023-04-19T07:15:10;100423.22;;;17.18;42.44
14383;BME280;7275;50.328;8.720;2023-04-19T07:17:39;100425.47;;;17.26;42.35
14383;BME280;7275;50.328;8.720;2023-04-19T07:20:07;100417.91;;;17.34;42.44
14383;BME280;7275;50.328;8.720;2023-04-19T07:22:35;100413.00;;;17.42;42.25
14383;BME280;7275;50.328;8.720;2023-04-19T07:25:03;100413.41;;;17.51;42.17
14383;BME280;7275;50.328;8.720;2023-04-19T07:27:30;100399.63;;;17.59;41.98
14383;BME280;7275;50.328;8.720;2023-04-19T07:29:58;100406.19;;;17.69;42.08
14383;BME280;7275;50.328;8.720;2023-04-19T07:32:26;100398.44;;;17.80;41.92
14383;BME280;7275;50.328;8.720;2023-04-19T07:34:54;100398.81;;;17.90;41.65
14383;BME280;7275;50.328;8.720;2023-04-19T07:37:22;100387.56;;;17.99;41.75
14383;BME280;7275;50.328;8.720;2023-04-19T07:39:49;100386.09;;;18.09;41.59
14383;BME280;7275;50.328;8.720;2023-04-19T07:42:17;100390.94;;;18.18;41.58
14383;BME280;7275;50.328;8.720;2023-04-19T07:44:44;100395.66;;;18.28;41.44
14383;BME280;7275;50.328;8.720;2023-04-19T07:47:12;100386.91;;;18.41;41.22
14383;BME280;7275;50.328;8.720;2023-04-19T07:49:41;100387.19;;;18.52;41.14
14383;BME280;7275;50.328;8.720;2023-04-19T07:52:09;100388.22;;;18.65;41.29
14383;BME280;7275;50.328;8.720;2023-04-19T07:54:37;100383.75;;;18.79;40.97
14383;BME280;7275;50.328;8.720;2023-04-19T07:57:05;100383.00;;;18.91;40.82
14383;BME280;7275;50.328;8.720;2023-04-19T07:59:33;100376.13;;;19.01;40.63
14383;BME280;7275;50.328;8.720;2023-04-19T08:02:00;100373.72;;;19.11;40.54
14383;BME280;7275;50.328;8.720;2023-04-19T08:04:28;100375.84;;;19.20;40.39
14383;BME280;7275;50.328;8.720;2023-04-19T08:06:57;100372.63;;;19.29;40.27
14383;BME280;7275;50.328;8.720;2023-04-19T08:09:25;100373.78;;;19.39;40.31
14383;BME280;7275;50.328;8.720;2023-04-19T08:11:53;100373.88;;;19.52;40.23
14383;BME280;7275;50.328;8.720;2023-04-19T08:14:20;100372.03;;;19.66;40.11
14383;BME280;7275;50.328;8.720;2023-04-19T08:17:03;100366.47;;;19.83;39.83
14383;BME280;7275;50.328;8.720;2023-04-19T08:19:51;100369.28;;;19.94;39.75
14383;BME280;7275;50.328;8.720;2023-04-19T08:22:19;100368.19;;;20.11;39.67
14383;BME280;7275;50.328;8.720;2023-04-19T08:24:48;100365.09;;;20.31;39.87
14383;BME280;7275;50.328;8.720;2023-04-19T08:27:16;100370.84;;;20.52;39.43
14383;BME280;7275;50.328;8.720;2023-04-19T08:29:44;100367.97;;;20.67;39.03
14383;BME280;7275;50.328;8.720;2023-04-19T08:32:12;100373.19;;;20.83;38.93
14383;BME280;7275;50.328;8.720;2023-04-19T08:34:39;100370.28;;;20.99;38.90
14383;BME280;7275;50.328;8.720;2023-04-19T08:37:07;100372.81;;;21.14;38.43
14383;BME280;7275;50.328;8.720;2023-04-19T08:39:36;100377.88;;;21.31;38.21
14383;BME280;7275;50.328;8.720;2023-04-19T08:42:05;100366.22;;;21.43;38.20
14383;BME280;7275;50.328;8.720;2023-04-19T08:44:50;100358.47;;;21.52;37.76
14383;BME280;7275;50.328;8.720;2023-04-19T08:47:38;100366.69;;;21.74;38.11
14383;BME280;7275;50.328;8.720;2023-04-19T08:50:26;100356.44;;;22.04;38.12
14383;BME280;7275;50.328;8.720;2023-04-19T08:53:05;100351.09;;;22.39;37.84
14383;BME280;7275;50.328;8.720;2023-04-19T08:55:37;100359.59;;;22.69;37.91
14383;BME280;7275;50.328;8.720;2023-04-19T08:58:12;100357.19;;;22.99;37.26
14383;BME280;7275;50.328;8.720;2023-04-19T09:00:58;100348.31;;;23.32;36.91
14383;BME280;7275;50.328;8.720;2023-04-19T09:03:26;100349.81;;;23.69;36.83
14383;BME280;7275;50.328;8.720;2023-04-19T09:05:54;100347.03;;;24.02;36.06
14383;BME280;7275;50.328;8.720;2023-04-19T09:08:23;100341.31;;;24.38;35.50
14383;BME280;7275;50.328;8.720;2023-04-19T09:10:54;100347.06;;;24.77;35.25
14383;BME280;7275;50.328;8.720;2023-04-19T09:13:23;100340.44;;;25.31;34.80
14383;BME280;7275;50.328;8.720;2023-04-19T09:15:51;100335.94;;;25.81;34.38
14383;BME280;7275;50.328;8.720;2023-04-19T09:18:19;100348.19;;;26.25;33.70
14383;BME280;7275;50.328;8.720;2023-04-19T09:20:47;100339.66;;;26.58;33.37
14383;BME280;7275;50.328;8.720;2023-04-19T09:23:17;100339.94;;;26.93;32.64
14383;BME280;7275;50.328;8.720;2023-04-19T09:25:53;100323.28;;;27.25;32.33
14383;BME280;7275;50.328;8.720;2023-04-19T09:28:54;100321.41;;;27.72;31.91
14383;BME280;7275;50.328;8.720;2023-04-19T09:31:22;100325.63;;;28.11;31.54
14383;BME280;7275;50.328;8.720;2023-04-19T09:33:55;100321.59;;;28.51;31.01
14383;BME280;7275;50.328;8.720;2023-04-19T09:36:28;100326.50;;;28.47;30.82
14383;BME280;7275;50.328;8.720;2023-04-19T09:38:56;100320.38;;;28.45;30.11
14383;BME280;7275;50.328;8.720;2023-04-19T09:41:25;100325.72;;;28.19;30.29
14383;BME280;7275;50.328;8.720;2023-04-19T09:43:53;100326.97;;;27.70;30.15
14383;BME280;7275;50.328;8.720;2023-04-19T09:46:41;100325.06;;;27.07;30.33
14383;BME280;7275;50.328;8.720;2023-04-19T09:49:18;100325.13;;;26.78;30.35
14383;BME280;7275;50.328;8.720;2023-04-19T09:52:02;100325.94;;;26.98;30.21
14383;BME280;7275;50.328;8.720;2023-04-19T09:54:31;100312.13;;;27.38;29.82
14383;BME280;7275;50.328;8.720;2023-04-19T09:57:00;100310.66;;;27.70;29.63
14383;BME280;7275;50.328;8.720;2023-04-19T09:59:28;100309.94;;;28.05;29.04
14383;BME280;7275;50.328;8.720;2023-04-19T10:01:58;100312.72;;;28.31;28.81
14383;BME280;7275;50.328;8.720;2023-04-19T10:04:26;100297.59;;;28.64;28.25
14383;BME280;7275;50.328;8.720;2023-04-19T10:07:14;100296.63;;;28.90;28.17
14383;BME280;7275;50.328;8.720;2023-04-19T10:09:46;100294.84;;;29.07;28.02
14383;BME280;7275;50.328;8.720;2023-04-19T10:12:23;100301.97;;;29.26;27.78
14383;BME280;7275;50.328;8.720;2023-04-19T10:15:12;100292.47;;;29.71;27.66
14383;BME280;7275;50.328;8.720;2023-04-19T10:17:40;100298.59;;;30.07;26.92
14383;BME280;7275;50.328;8.720;2023-04-19T10:20:11;100289.13;;;30.35;26.73
14383;BME280;7275;50.328;8.720;2023-04-19T10:22:39;100303.47;;;30.45;26.24
14383;BME280;7275;50.328;8.720;2023-04-19T10:25:08;100285.22;;;30.54;25.75
14383;BME280;7275;50.328;8.720;2023-04-19T10:27:39;100282.47;;;30.78;25.70
14383;BME280;7275;50.328;8.720;2023-04-19T10:30:16;100274.44;;;31.01;25.74
14383;BME280;7275;50.328;8.720;2023-04-19T10:32:46;100271.16;;;31.13;25.37
14383;BME280;7275;50.328;8.720;2023-04-19T10:35:20;100262.63;;;31.63;25.39
14383;BME280;7275;50.328;8.720;2023-04-19T10:38:15;100263.31;;;32.26;25.62
14383;BME280;7275;50.328;8.720;2023-04-19T10:40:56;100265.84;;;32.73;24.67
14383;BME280;7275;50.328;8.720;2023-04-19T10:43:27;100255.38;;;33.14;24.33
14383;BME280;7275;50.328;8.720;2023-04-19T10:45:58;100261.97;;;33.34;23.44
14383;BME280;7275;50.328;8.720;2023-04-19T10:48:51;100263.19;;;33.46;23.30
14383;BME280;7275;50.328;8.720;2023-04-19T10:51:21;100252.97;;;33.69;22.82
14383;BME280;7275;50.328;8.720;2023-04-19T10:53:51;100249.38;;;33.83;22.26
14383;BME280;7275;50.328;8.720;2023-04-19T10:56:21;100251.91;;;34.00;21.94
14383;BME280;7275;50.328;8.720;2023-04-19T10:59:14;100233.84;;;33.76;22.29
14383;BME280;7275;50.328;8.720;2023-04-19T11:01:52;100237.97;;;33.07;21.90
14383;BME280;7275;50.328;8.720;2023-04-19T11:04:23;100232.47;;;32.33;22.49
14383;BME280;7275;50.328;8.720;2023-04-19T11:06:59;100236.28;;;31.70;22.43
14383;BME280;7275;50.328;8.720;2023-04-19T11:09:29;100230.66;;;31.25;22.42
14383;BME280;7275;50.328;8.720;2023-04-19T11:11:59;100230.78;;;31.47;22.30
14383;BME280;7275;50.328;8.720;2023-04-19T11:14:31;100235.44;;;32.00;22.14
14383;BME280;7275;50.328;8.720;2023-04-19T11:16:59;100226.22;;;32.01;21.45
14383;BME280;7275;50.328;8.720;2023-04-19T11:19:27;100215.72;;;32.27;21.71
14383;BME280;7275;50.328;8.720;2023-04-19T11:21:57;100211.66;;;32.69;20.91
14383;BME280;7275;50.328;8.720;2023-04-19T11:24:25;100211.81;;;32.82;20.77
14383;BME280;7275;50.328;8.720;2023-04-19T11:26:54;100211.41;;;33.08;20.85
14383;BME280;7275;50.328;8.720;2023-04-19T11:29:22;100203.47;;;33.56;20.32
14383;BME280;7275;50.328;8.720;2023-04-19T11:31:51;100207.88;;;33.93;20.17
14383;BME280;7275;50.328;8.720;2023-04-19T11:34:21;100197.09;;;34.27;20.09
14383;BME280;7275;50.328;8.720;2023-04-19T11:36:50;100187.53;;;34.72;19.44
14383;BME280;7275;50.328;8.720;2023-04-19T11:39:17;100184.09;;;35.25;19.05
14383;BME280;7275;50.328;8.720;2023-04-19T11:41:46;100190.63;;;35.72;18.65
14383;BME280;7275;50.328;8.720;2023-04-19T11:44:15;100189.50;;;36.20;18.76
14383;BME280;7275;50.328;8.720;2023-04-19T11:46:59;100185.72;;;36.47;18.27
14383;BME280;7275;50.328;8.720;2023-04-19T11:49:28;100178.28;;;36.87;18.32
14383;BME280;7275;50.328;8.720;2023-04-19T11:51:57;100168.00;;;37.40;17.94
14383;BME280;7275;50.328;8.720;2023-04-19T11:54:26;100176.94;;;37.73;17.10
14383;BME280;7275;50.328;8.720;2023-04-19T11:56:58;100182.00;;;37.83;16.88
14383;BME280;7275;50.328;8.720;2023-04-19T11:59:26;100178.63;;;37.81;16.75
14383;BME280;7275;50.328;8.720;2023-04-19T12:01:54;100172.94;;;37.69;16.39
14383;BME280;7275;50.328;8.720;2023-04-19T12:04:23;100164.19;;;37.79;16.15
14383;BME280;7275;50.328;8.720;2023-04-19T12:06:57;100155.59;;;37.93;16.34
14383;BME280;7275;50.328;8.720;2023-04-19T12:09:25;100156.53;;;38.12;16.25
14383;BME280;7275;50.328;8.720;2023-04-19T12:11:53;100154.31;;;38.27;15.95
14383;BME280;7275;50.328;8.720;2023-04-19T12:14:22;100159.28;;;38.43;15.41
14383;BME280;7275;50.328;8.720;2023-04-19T12:17:05;100143.13;;;38.65;16.20
14383;BME280;7275;50.328;8.720;2023-04-19T12:19:41;100144.50;;;38.80;15.17
14383;BME280;7275;50.328;8.720;2023-04-19T12:22:11;100138.50;;;39.01;15.12
14383;BME280;7275;50.328;8.720;2023-04-19T12:24:39;100132.41;;;39.18;14.83
14383;BME280;7275;50.328;8.720;2023-04-19T12:27:07;100138.22;;;39.28;14.80
14383;BME280;7275;50.328;8.720;2023-04-19T12:29:36;100138.59;;;39.31;14.61
14383;BME280;7275;50.328;8.720;2023-04-19T12:32:05;100136.69;;;39.32;14.35
14383;BME280;7275;50.328;8.720;2023-04-19T12:34:32;100123.41;;;39.22;14.14
14383;BME280;7275;50.328;8.720;2023-04-19T12:37:01;100125.63;;;39.13;13.95
14383;BME280;7275;50.328;8.720;2023-04-19T12:39:29;100121.53;;;39.34;14.43
14383;BME280;7275;50.328;8.720;2023-04-19T12:41:57;100130.25;;;39.49;13.96
14383;BME280;7275;50.328;8.720;2023-04-19T12:44:24;100114.03;;;39.53;13.56
14383;BME280;7275;50.328;8.720;2023-04-19T12:46:52;100115.69;;;39.54;13.05
14383;BME280;7275;50.328;8.720;2023-04-19T12:49:22;100108.31;;;39.18;13.29
14383;BME280;7275;50.328;8.720;2023-04-19T12:51:50;100114.81;;;39.05;13.49
14383;BME280;7275;50.328;8.720;2023-04-19T12:54:20;100115.63;;;38.94;13.50
14383;BME280;7275;50.328;8.720;2023-04-19T12:56:47;100112.91;;;38.88;13.54
14383;BME280;7275;50.328;8.720;2023-04-19T12:59:15;100114.94;;;38.99;13.13
14383;BME280;7275;50.328;8.720;2023-04-19T13:01:43;100104.38;;;39.07;12.82
14383;BME280;7275;50.328;8.720;2023-04-19T13:04:11;100105.00;;;39.09;12.97
14383;BME280;7275;50.328;8.720;2023-04-19T13:06:39;100093.56;;;39.24;12.71
14383;BME280;7275;50.328;8.720;2023-04-19T13:09:06;100107.69;;;39.16;12.83
14383;BME280;7275;50.328;8.720;2023-04-19T13:11:38;100103.50;;;39.13;12.89
14383;BME280;7275;50.328;8.720;2023-04-19T13:14:06;100108.22;;;39.25;12.77
14383;BME280;7275;50.328;8.720;2023-04-19T13:16:33;100098.16;;;39.30;12.25
14383;BME280;7275;50.328;8.720;2023-04-19T13:19:01;100092.63;;;39.30;12.16
14383;BME280;7275;50.328;8.720;2023-04-19T13:21:28;100094.34;;;38.95;11.92
14383;BME280;7275;50.328;8.720;2023-04-19T13:23:57;100089.09;;;38.69;12.09
14383;BME280;7275;50.328;8.720;2023-04-19T13:26:24;100088.78;;;38.34;12.35
14383;BME280;7275;50.328;8.720;2023-04-19T13:28:53;100098.22;;;37.95;11.97
14383;BME280;7275;50.328;8.720;2023-04-19T13:31:21;100092.59;;;37.77;12.25
14383;BME280;7275;50.328;8.720;2023-04-19T13:33:49;100092.22;;;37.74;12.29
14383;BME280;7275;50.328;8.720;2023-04-19T13:36:16;100096.72;;;37.61;11.99
14383;BME280;7275;50.328;8.720;2023-04-19T13:38:44;100095.00;;;37.36;12.19
14383;BME280;7275;50.328;8.720;2023-04-19T13:41:12;100087.25;;;37.07;12.01
14383;BME280;7275;50.328;8.720;2023-04-19T13:43:40;100085.81;;;36.78;12.29
14383;BME280;7275;50.328;8.720;2023-04-19T13:46:09;100078.47;;;36.65;11.77
14383;BME280;7275;50.328;8.720;2023-04-19T13:48:37;100079.66;;;36.76;12.08
14383;BME280;7275;50.328;8.720;2023-04-19T13:51:05;100070.97;;;36.79;12.04
14383;BME280;7275;50.328;8.720;2023-04-19T13:53:33;100080.53;;;36.76;11.99
14383;BME280;7275;50.328;8.720;2023-04-19T13:56:00;100073.72;;;36.85;12.37
14383;BME280;7275;50.328;8.720;2023-04-19T13:58:28;100072.19;;;37.09;12.58
14383;BME280;7275;50.328;8.720;2023-04-19T14:00:55;100059.72;;;37.44;12.15
14383;BME280;7275;50.328;8.720;2023-04-19T14:03:25;100065.59;;;37.54;12.13
14383;BME280;7275;50.328;8.720;2023-04-19T14:05:52;100055.25;;;37.43;12.03
14383;BME280;7275;50.328;8.720;2023-04-19T14:08:20;100052.88;;;37.47;12.29
14383;BME280;7275;50.328;8.720;2023-04-19T14:10:48;100059.50;;;37.71;12.02
14383;BME280;7275;50.328;8.720;2023-04-19T14:13:16;100064.75;;;37.85;12.10
14383;BME280;7275;50.328;8.720;2023-04-19T14:15:43;100049.75;;;37.99;11.82
14383;BME280;7275;50.328;8.720;2023-04-19T14:18:11;100049.69;;;38.06;12.08
14383;BME280;7275;50.328;8.720;2023-04-19T14:20:40;100047.50;;;38.14;12.05
14383;BME280;7275;50.328;8.720;2023-04-19T14:23:08;100039.88;;;37.85;11.89
14383;BME280;7275;50.328;8.720;2023-04-19T14:25:35;100034.25;;;37.42;12.37
14383;BME280;7275;50.328;8.720;2023-04-19T14:28:03;100040.66;;;36.79;12.35
14383;BME280;7275;50.328;8.720;2023-04-19T14:30:30;100033.81;;;36.11;13.03